sensor_id;sensor_type;location;lat;lon;timestamp;P1;durP1;ratioP1;P2;durP2;ratioP2
65545;SDS011;52177;55.968;37.498;2022-07-23T00:00:12;6.78;;;5.43;;
65545;SDS011;52177;55.968;37.498;2022-07-23T00:00:43;6.45;;;5.85;;
65545;SDS011;52177;55.968;37.498;2022-07-23T00:01:13;6.72;;;5.60;;
65545;SDS011;52177;55.968;37.498;2022-07-23T00:01:44;7.97;;;5.88;;
65545;SDS011;52177;55.968;37.498;2022-07-23T00:02:14;8.57;;;6.40;;
65545;SDS011;52177;55.968;37.498;2022-07-23T00:02:45;6.63;;;6.00;;
65545;SDS011;52177;55.968;37.498;2022-07-23T00:03:15;5.72;;;5.22;;
65545;SDS011;52177;55.968;37.498;2022-07-23T00:03:46;7.47;;;5.80;;
65545;SDS011;52177;55.968;37.498;2022-07-23T00:04:16;6.15;;;5.55;;
65545;SDS011;52177;55.968;37.498;2022-07-23T00:04:47;8.07;;;5.43;;
65545;SDS011;52177;55.968;37.498;2022-07-23T00:05:17;6.50;;;5.90;;
65545;SDS011;52177;55.968;37.498;2022-07-23T00:05:49;8.20;;;5.45;;
65545;SDS011;52177;55.968;37.498;2022-07-23T00:06:19;6.28;;;5.38;;
65545;SDS011;52177;55.968;37.498;2022-07-23T00:06:50;5.65;;;5.05;;
65545;SDS011;52177;55.968;37.498;2022-07-23T00:07:20;8.32;;;5.60;;
65545;SDS011;52177;55.968;37.498;2022-07-23T00:07:51;8.82;;;6.00;;
65545;SDS011;52177;55.968;37.498;2022-07-23T00:08:21;5.63;;;5.03;;
65545;SDS011;52177;55.968;37.498;2022-07-23T00:08:52;7.00;;;6.10;;
65545;SDS011;52177;55.968;37.498;2022-07-23T00:09:22;6.15;;;5.55;;
65545;SDS011;52177;55.968;37.498;2022-07-23T00:09:53;5.88;;;5.38;;
65545;SDS011;52177;55.968;37.498;2022-07-23T00:10:23;5.78;;;5.20;;
65545;SDS011;52177;55.968;37.498;2022-07-23T00:10:54;5.78;;;5.28;;
65545;SDS011;52177;55.968;37.498;2022-07-23T00:11:25;7.05;;;5.63;;
65545;SDS011;52177;55.968;37.498;2022-07-23T00:11:55;6.57;;;5.32;;
65545;SDS011;52177;55.968;37.498;2022-07-23T00:12:25;6.03;;;5.25;;
65545;SDS011;52177;55.968;37.498;2022-07-23T00:12:56;8.98;;;5.72;;
65545;SDS011;52177;55.968;37.498;2022-07-23T00:13:27;10.73;;;5.75;;
65545;SDS011;52177;55.968;37.498;2022-07-23T00:13:57;9.18;;;5.90;;
65545;SDS011;52177;55.968;37.498;2022-07-23T00:14:28;5.97;;;5.40;;
65545;SDS011;52177;55.968;37.498;2022-07-23T00:14:58;6.63;;;5.88;;
65545;SDS011;52177;55.968;37.498;2022-07-23T00:15:29;8.80;;;5.38;;
65545;SDS011;52177;55.968;37.498;2022-07-23T00:16:00;8.63;;;5.30;;
65545;SDS011;52177;55.968;37.498;2022-07-23T00:16:30;5.68;;;5.10;;
65545;SDS011;52177;55.968;37.498;2022-07-23T00:17:00;7.45;;;5.60;;
65545;SDS011;52177;55.968;37.498;2022-07-23T00:17:31;6.47;;;5.00;;
65545;SDS011;52177;55.968;37.498;2022-07-23T00:18:02;5.63;;;5.07;;
65545;SDS011;52177;55.968;37.498;2022-07-23T00:18:32;6.30;;;5.40;;
65545;SDS011;52177;55.968;37.498;2022-07-23T00:19:03;6.07;;;5.40;;
65545;SDS011;52177;55.968;37.498;2022-07-23T00:19:34;7.95;;;5.80;;
65545;SDS011;52177;55.968;37.498;2022-07-23T00:20:04;7.35;;;5.53;;
65545;SDS011;52177;55.968;37.498;2022-07-23T00:20:35;5.88;;;5.15;;
65545;SDS011;52177;55.968;37.498;2022-07-23T00:21:06;6.32;;;5.72;;
65545;SDS011;52177;55.968;37.498;2022-07-23T00:21:37;7.05;;;6.35;;
65545;SDS011;52177;55.968;37.498;2022-07-23T00:22:08;6.93;;;5.18;;
65545;SDS011;52177;55.968;37.498;2022-07-23T00:22:51;6.97;;;5.60;;
65545;SDS011;52177;55.968;37.498;2022-07-23T00:23:23;10.27;;;6.18;;
65545;SDS011;52177;55.968;37.498;2022-07-23T00:23:54;6.95;;;6.15;;
65545;SDS011;52177;55.968;37.498;2022-07-23T00:24:25;7.07;;;5.22;;
65545;SDS011;52177;55.968;37.498;2022-07-23T00:24:56;5.95;;;5.43;;
65545;SDS011;52177;55.968;37.498;2022-07-23T00:25:26;6.88;;;6.18;;
65545;SDS011;52177;55.968;37.498;2022-07-23T00:25:57;6.65;;;5.88;;
65545;SDS011;52177;55.968;37.498;2022-07-23T00:26:28;8.80;;;5.85;;
65545;SDS011;52177;55.968;37.498;2022-07-23T00:26:59;7.78;;;5.80;;
65545;SDS011;52177;55.968;37.498;2022-07-23T00:27:30;6.90;;;5.53;;
65545;SDS011;52177;55.968;37.498;2022-07-23T00:28:01;7.63;;;5.78;;
65545;SDS011;52177;55.968;37.498;2022-07-23T00:28:33;7.22;;;6.25;;
65545;SDS011;52177;55.968;37.498;2022-07-23T00:29:04;7.88;;;6.32;;
65545;SDS011;52177;55.968;37.498;2022-07-23T00:29:34;7.60;;;5.88;;
65545;SDS011;52177;55.968;37.498;2022-07-23T00:30:05;10.82;;;6.85;;
65545;SDS011;52177;55.968;37.498;2022-07-23T00:30:36;7.10;;;5.90;;
65545;SDS011;52177;55.968;37.498;2022-07-23T00:31:07;6.43;;;5.78;;
65545;SDS011;52177;55.968;37.498;2022-07-23T00:31:37;6.72;;;5.78;;
65545;SDS011;52177;55.968;37.498;2022-07-23T00:32:08;6.97;;;6.28;;
65545;SDS011;52177;55.968;37.498;2022-07-23T00:32:49;9.32;;;6.93;;
65545;SDS011;52177;55.968;37.498;2022-07-23T00:33:21;9.10;;;5.97;;
65545;SDS011;52177;55.968;37.498;2022-07-23T00:33:52;7.35;;;5.40;;
65545;SDS011;52177;55.968;37.498;2022-07-23T00:34:26;8.55;;;6.72;;
65545;SDS011;52177;55.968;37.498;2022-07-23T00:34:57;8.18;;;5.90;;
65545;SDS011;52177;55.968;37.498;2022-07-23T00:35:30;10.02;;;6.43;;
65545;SDS011;52177;55.968;37.498;2022-07-23T00:36:02;8.50;;;6.18;;
65545;SDS011;52177;55.968;37.498;2022-07-23T00:36:33;7.95;;;5.93;;
65545;SDS011;52177;55.968;37.498;2022-07-23T00:37:03;7.75;;;6.15;;
65545;SDS011;52177;55.968;37.498;2022-07-23T00:37:34;7.25;;;5.50;;
65545;SDS011;52177;55.968;37.498;2022-07-23T00:38:06;7.78;;;6.57;;
65545;SDS011;52177;55.968;37.498;2022-07-23T00:38:39;8.30;;;6.57;;
65545;SDS011;52177;55.968;37.498;2022-07-23T00:39:11;8.80;;;6.55;;
65545;SDS011;52177;55.968;37.498;2022-07-23T00:39:41;6.88;;;6.03;;
65545;SDS011;52177;55.968;37.498;2022-07-23T00:40:12;7.18;;;6.25;;
65545;SDS011;52177;55.968;37.498;2022-07-23T00:40:43;11.00;;;6.43;;
65545;SDS011;52177;55.968;37.498;2022-07-23T00:41:14;8.20;;;6.63;;
65545;SDS011;52177;55.968;37.498;2022-07-23T00:41:45;7.18;;;6.47;;
65545;SDS011;52177;55.968;37.498;2022-07-23T00:42:15;7.03;;;6.32;;
65545;SDS011;52177;55.968;37.498;2022-07-23T00:42:45;7.35;;;6.53;;
65545;SDS011;52177;55.968;37.498;2022-07-23T00:43:16;7.60;;;6.65;;
65545;SDS011;52177;55.968;37.498;2022-07-23T00:43:46;9.32;;;6.90;;
65545;SDS011;52177;55.968;37.498;2022-07-23T00:44:24;9.02;;;6.80;;
65545;SDS011;52177;55.968;37.498;2022-07-23T00:44:56;8.80;;;6.82;;
65545;SDS011;52177;55.968;37.498;2022-07-23T00:45:27;11.20;;;7.20;;
65545;SDS011;52177;55.968;37.498;2022-07-23T00:45:58;8.80;;;7.07;;
65545;SDS011;52177;55.968;37.498;2022-07-23T00:46:29;7.65;;;6.85;;
65545;SDS011;52177;55.968;37.498;2022-07-23T00:46:59;8.43;;;6.47;;
65545;SDS011;52177;55.968;37.498;2022-07-23T00:47:30;7.10;;;6.30;;
65545;SDS011;52177;55.968;37.498;2022-07-23T00:48:00;7.75;;;6.80;;
65545;SDS011;52177;55.968;37.498;2022-07-23T00:48:31;10.00;;;6.15;;
65545;SDS011;52177;55.968;37.498;2022-07-23T00:49:03;8.77;;;7.10;;
65545;SDS011;52177;55.968;37.498;2022-07-23T00:49:33;7.25;;;6.55;;
65545;SDS011;52177;55.968;37.498;2022-07-23T00:50:04;7.85;;;6.60;;
65545;SDS011;52177;55.968;37.498;2022-07-23T00:50:36;7.68;;;6.65;;
65545;SDS011;52177;55.968;37.498;2022-07-23T00:51:07;7.75;;;6.82;;
65545;SDS011;52177;55.968;37.498;2022-07-23T00:51:37;8.75;;;7.03;;
65545;SDS011;52177;55.968;37.498;2022-07-23T00:52:08;9.13;;;7.07;;
65545;SDS011;52177;55.968;37.498;2022-07-23T00:52:38;8.32;;;7.53;;
65545;SDS011;52177;55.968;37.498;2022-07-23T00:53:09;9.10;;;7.07;;
65545;SDS011;52177;55.968;37.498;2022-07-23T00:53:40;13.05;;;7.70;;
65545;SDS011;52177;55.968;37.498;2022-07-23T00:54:13;8.88;;;7.25;;
65545;SDS011;52177;55.968;37.498;2022-07-23T00:54:45;11.48;;;7.78;;
65545;SDS011;52177;55.968;37.498;2022-07-23T00:55:15;8.93;;;7.40;;
65545;SDS011;52177;55.968;37.498;2022-07-23T00:55:46;11.15;;;7.40;;
65545;SDS011;52177;55.968;37.498;2022-07-23T00:56:17;9.00;;;7.60;;
65545;SDS011;52177;55.968;37.498;2022-07-23T00:56:48;9.43;;;7.20;;
65545;SDS011;52177;55.968;37.498;2022-07-23T00:57:18;8.38;;;7.32;;
65545;SDS011;52177;55.968;37.498;2022-07-23T00:57:49;8.82;;;7.88;;
65545;SDS011;52177;55.968;37.498;2022-07-23T00:58:21;10.30;;;7.72;;
65545;SDS011;52177;55.968;37.498;2022-07-23T00:58:51;7.88;;;7.07;;
65545;SDS011;52177;55.968;37.498;2022-07-23T00:59:22;8.25;;;7.40;;
65545;SDS011;52177;55.968;37.498;2022-07-23T00:59:52;10.38;;;7.43;;
65545;SDS011;52177;55.968;37.498;2022-07-23T01:00:24;7.70;;;6.65;;
65545;SDS011;52177;55.968;37.498;2022-07-23T01:00:54;10.10;;;7.10;;
65545;SDS011;52177;55.968;37.498;2022-07-23T01:01:25;8.88;;;7.00;;
65545;SDS011;52177;55.968;37.498;2022-07-23T01:01:55;8.48;;;6.80;;
65545;SDS011;52177;55.968;37.498;2022-07-23T01:02:26;8.20;;;6.88;;
65545;SDS011;52177;55.968;37.498;2022-07-23T01:02:57;10.15;;;7.22;;
65545;SDS011;52177;55.968;37.498;2022-07-23T01:03:28;10.40;;;7.00;;
65545;SDS011;52177;55.968;37.498;2022-07-23T01:03:58;7.45;;;6.72;;
65545;SDS011;52177;55.968;37.498;2022-07-23T01:04:29;7.95;;;6.28;;
65545;SDS011;52177;55.968;37.498;2022-07-23T01:04:59;7.30;;;6.50;;
65545;SDS011;52177;55.968;37.498;2022-07-23T01:05:31;7.10;;;6.32;;
65545;SDS011;52177;55.968;37.498;2022-07-23T01:06:01;6.70;;;6.10;;
65545;SDS011;52177;55.968;37.498;2022-07-23T01:06:37;7.32;;;6.50;;
65545;SDS011;52177;55.968;37.498;2022-07-23T01:07:08;8.65;;;6.50;;
65545;SDS011;52177;55.968;37.498;2022-07-23T01:07:39;8.27;;;7.10;;
65545;SDS011;52177;55.968;37.498;2022-07-23T01:08:10;7.78;;;6.88;;
65545;SDS011;52177;55.968;37.498;2022-07-23T01:08:41;7.22;;;6.45;;
65545;SDS011;52177;55.968;37.498;2022-07-23T01:09:12;7.57;;;6.35;;
65545;SDS011;52177;55.968;37.498;2022-07-23T01:09:43;10.10;;;6.43;;
65545;SDS011;52177;55.968;37.498;2022-07-23T01:10:14;7.78;;;6.07;;
65545;SDS011;52177;55.968;37.498;2022-07-23T01:11:03;7.28;;;6.28;;
65545;SDS011;52177;55.968;37.498;2022-07-23T01:11:34;7.05;;;6.35;;
65545;SDS011;52177;55.968;37.498;2022-07-23T01:12:06;6.95;;;5.97;;
65545;SDS011;52177;55.968;37.498;2022-07-23T01:12:37;7.43;;;6.05;;
65545;SDS011;52177;55.968;37.498;2022-07-23T01:13:08;6.43;;;5.82;;
65545;SDS011;52177;55.968;37.498;2022-07-23T01:13:42;7.97;;;5.80;;
65545;SDS011;52177;55.968;37.498;2022-07-23T01:14:14;9.68;;;6.05;;
65545;SDS011;52177;55.968;37.498;2022-07-23T01:14:53;6.90;;;6.20;;
65545;SDS011;52177;55.968;37.498;2022-07-23T01:15:25;6.38;;;5.70;;
65545;SDS011;52177;55.968;37.498;2022-07-23T01:15:56;6.20;;;5.60;;
65545;SDS011;52177;55.968;37.498;2022-07-23T01:16:26;7.95;;;5.90;;
65545;SDS011;52177;55.968;37.498;2022-07-23T01:16:57;5.70;;;5.07;;
65545;SDS011;52177;55.968;37.498;2022-07-23T01:17:27;6.10;;;5.50;;
65545;SDS011;52177;55.968;37.498;2022-07-23T01:17:58;6.68;;;5.55;;
65545;SDS011;52177;55.968;37.498;2022-07-23T01:18:30;6.30;;;5.70;;
65545;SDS011;52177;55.968;37.498;2022-07-23T01:19:00;6.20;;;5.60;;
65545;SDS011;52177;55.968;37.498;2022-07-23T01:19:30;7.45;;;5.30;;
65545;SDS011;52177;55.968;37.498;2022-07-23T01:20:01;7.25;;;4.78;;
65545;SDS011;52177;55.968;37.498;2022-07-23T01:20:32;6.55;;;5.22;;
65545;SDS011;52177;55.968;37.498;2022-07-23T01:21:04;5.85;;;5.25;;
65545;SDS011;52177;55.968;37.498;2022-07-23T01:21:38;5.95;;;5.35;;
65545;SDS011;52177;55.968;37.498;2022-07-23T01:22:14;6.70;;;5.03;;
65545;SDS011;52177;55.968;37.498;2022-07-23T01:22:45;8.27;;;5.70;;
65545;SDS011;52177;55.968;37.498;2022-07-23T01:23:16;5.70;;;5.10;;
65545;SDS011;52177;55.968;37.498;2022-07-23T01:23:46;5.50;;;5.00;;
65545;SDS011;52177;55.968;37.498;2022-07-23T01:24:17;6.45;;;5.10;;
65545;SDS011;52177;55.968;37.498;2022-07-23T01:24:51;7.20;;;5.40;;
65545;SDS011;52177;55.968;37.498;2022-07-23T01:25:21;7.03;;;5.95;;
65545;SDS011;52177;55.968;37.498;2022-07-23T01:25:52;7.47;;;6.05;;
65545;SDS011;52177;55.968;37.498;2022-07-23T01:26:23;7.13;;;6.05;;
65545;SDS011;52177;55.968;37.498;2022-07-23T01:26:55;7.97;;;5.80;;
65545;SDS011;52177;55.968;37.498;2022-07-23T01:27:26;5.95;;;5.35;;
65545;SDS011;52177;55.968;37.498;2022-07-23T01:27:58;7.40;;;5.78;;
65545;SDS011;52177;55.968;37.498;2022-07-23T01:28:29;7.85;;;5.65;;
65545;SDS011;52177;55.968;37.498;2022-07-23T01:28:59;6.60;;;5.90;;
65545;SDS011;52177;55.968;37.498;2022-07-23T01:29:30;6.82;;;6.00;;
65545;SDS011;52177;55.968;37.498;2022-07-23T01:30:01;9.32;;;6.68;;
65545;SDS011;52177;55.968;37.498;2022-07-23T01:30:31;7.35;;;5.57;;
65545;SDS011;52177;55.968;37.498;2022-07-23T01:31:02;7.40;;;5.95;;
65545;SDS011;52177;55.968;37.498;2022-07-23T01:31:32;8.18;;;6.32;;
65545;SDS011;52177;55.968;37.498;2022-07-23T01:32:03;9.50;;;5.88;;
65545;SDS011;52177;55.968;37.498;2022-07-23T01:32:34;6.43;;;5.78;;
65545;SDS011;52177;55.968;37.498;2022-07-23T01:33:04;7.72;;;5.20;;
65545;SDS011;52177;55.968;37.498;2022-07-23T01:33:35;9.25;;;6.18;;
65545;SDS011;52177;55.968;37.498;2022-07-23T01:34:05;7.20;;;5.60;;
65545;SDS011;52177;55.968;37.498;2022-07-23T01:34:37;7.95;;;5.22;;
65545;SDS011;52177;55.968;37.498;2022-07-23T01:35:07;9.48;;;5.40;;
65545;SDS011;52177;55.968;37.498;2022-07-23T01:35:39;6.80;;;5.43;;
65545;SDS011;52177;55.968;37.498;2022-07-23T01:36:09;10.52;;;5.78;;
65545;SDS011;52177;55.968;37.498;2022-07-23T01:36:40;6.43;;;5.50;;
65545;SDS011;52177;55.968;37.498;2022-07-23T01:37:10;7.63;;;5.72;;
65545;SDS011;52177;55.968;37.498;2022-07-23T01:37:41;6.75;;;5.57;;
65545;SDS011;52177;55.968;37.498;2022-07-23T01:38:12;6.85;;;5.88;;
65545;SDS011;52177;55.968;37.498;2022-07-23T01:38:43;7.63;;;5.55;;
65545;SDS011;52177;55.968;37.498;2022-07-23T01:39:13;6.85;;;5.55;;
65545;SDS011;52177;55.968;37.498;2022-07-23T01:39:44;10.68;;;5.43;;
65545;SDS011;52177;55.968;37.498;2022-07-23T01:40:15;8.23;;;5.97;;
65545;SDS011;52177;55.968;37.498;2022-07-23T01:40:47;7.53;;;5.85;;
65545;SDS011;52177;55.968;37.498;2022-07-23T01:41:17;11.45;;;5.20;;
65545;SDS011;52177;55.968;37.498;2022-07-23T01:41:48;6.80;;;5.30;;
65545;SDS011;52177;55.968;37.498;2022-07-23T01:42:19;9.57;;;5.10;;
65545;SDS011;52177;55.968;37.498;2022-07-23T01:42:51;6.43;;;5.55;;
65545;SDS011;52177;55.968;37.498;2022-07-23T01:43:22;10.50;;;6.13;;
65545;SDS011;52177;55.968;37.498;2022-07-23T01:43:53;6.95;;;5.70;;
65545;SDS011;52177;55.968;37.498;2022-07-23T01:44:23;6.88;;;5.70;;
65545;SDS011;52177;55.968;37.498;2022-07-23T01:44:54;8.70;;;5.85;;
65545;SDS011;52177;55.968;37.498;2022-07-23T01:45:24;7.00;;;5.35;;
65545;SDS011;52177;55.968;37.498;2022-07-23T01:45:55;7.40;;;5.45;;
65545;SDS011;52177;55.968;37.498;2022-07-23T01:46:25;10.52;;;5.40;;
65545;SDS011;52177;55.968;37.498;2022-07-23T01:46:56;6.18;;;5.57;;
65545;SDS011;52177;55.968;37.498;2022-07-23T01:47:26;11.88;;;5.68;;
65545;SDS011;52177;55.968;37.498;2022-07-23T01:47:57;6.43;;;5.40;;
65545;SDS011;52177;55.968;37.498;2022-07-23T01:48:27;6.80;;;4.85;;
65545;SDS011;52177;55.968;37.498;2022-07-23T01:48:58;9.75;;;5.63;;
65545;SDS011;52177;55.968;37.498;2022-07-23T01:49:29;7.28;;;5.63;;
65545;SDS011;52177;55.968;37.498;2022-07-23T01:49:59;6.03;;;5.38;;
65545;SDS011;52177;55.968;37.498;2022-07-23T01:50:30;5.72;;;5.13;;
65545;SDS011;52177;55.968;37.498;2022-07-23T01:51:01;7.13;;;5.60;;
65545;SDS011;52177;55.968;37.498;2022-07-23T01:51:31;7.55;;;5.13;;
65545;SDS011;52177;55.968;37.498;2022-07-23T01:52:02;6.32;;;5.65;;
65545;SDS011;52177;55.968;37.498;2022-07-23T01:52:36;6.22;;;5.32;;
65545;SDS011;52177;55.968;37.498;2022-07-23T01:53:06;6.75;;;5.80;;
65545;SDS011;52177;55.968;37.498;2022-07-23T01:53:37;6.35;;;5.55;;
65545;SDS011;52177;55.968;37.498;2022-07-23T01:54:08;6.20;;;5.60;;
65545;SDS011;52177;55.968;37.498;2022-07-23T01:54:42;6.47;;;5.15;;
65545;SDS011;52177;55.968;37.498;2022-07-23T01:55:12;6.53;;;5.32;;
65545;SDS011;52177;55.968;37.498;2022-07-23T01:55:43;7.15;;;5.90;;
65545;SDS011;52177;55.968;37.498;2022-07-23T01:56:14;5.88;;;5.32;;
65545;SDS011;52177;55.968;37.498;2022-07-23T01:56:45;8.45;;;5.15;;
65545;SDS011;52177;55.968;37.498;2022-07-23T01:57:15;5.68;;;4.93;;
65545;SDS011;52177;55.968;37.498;2022-07-23T01:57:46;11.02;;;5.70;;
65545;SDS011;52177;55.968;37.498;2022-07-23T01:58:16;9.80;;;5.90;;
65545;SDS011;52177;55.968;37.498;2022-07-23T01:58:48;7.07;;;5.57;;
65545;SDS011;52177;55.968;37.498;2022-07-23T01:59:18;6.65;;;5.88;;
65545;SDS011;52177;55.968;37.498;2022-07-23T01:59:49;9.65;;;5.63;;
65545;SDS011;52177;55.968;37.498;2022-07-23T02:00:19;7.65;;;5.47;;
65545;SDS011;52177;55.968;37.498;2022-07-23T02:00:50;6.45;;;5.55;;
65545;SDS011;52177;55.968;37.498;2022-07-23T02:01:20;10.30;;;5.95;;
65545;SDS011;52177;55.968;37.498;2022-07-23T02:01:52;7.13;;;6.13;;
65545;SDS011;52177;55.968;37.498;2022-07-23T02:02:23;6.53;;;5.45;;
65545;SDS011;52177;55.968;37.498;2022-07-23T02:02:54;8.82;;;6.18;;
65545;SDS011;52177;55.968;37.498;2022-07-23T02:03:24;7.88;;;5.75;;
65545;SDS011;52177;55.968;37.498;2022-07-23T02:03:55;8.10;;;5.93;;
65545;SDS011;52177;55.968;37.498;2022-07-23T02:04:25;8.20;;;5.97;;
65545;SDS011;52177;55.968;37.498;2022-07-23T02:04:56;6.65;;;6.00;;
65545;SDS011;52177;55.968;37.498;2022-07-23T02:05:27;7.25;;;5.60;;
65545;SDS011;52177;55.968;37.498;2022-07-23T02:06:01;10.02;;;6.55;;
65545;SDS011;52177;55.968;37.498;2022-07-23T02:06:32;8.23;;;5.95;;
65545;SDS011;52177;55.968;37.498;2022-07-23T02:07:02;8.75;;;5.78;;
65545;SDS011;52177;55.968;37.498;2022-07-23T02:07:34;7.18;;;5.45;;
65545;SDS011;52177;55.968;37.498;2022-07-23T02:08:04;7.25;;;5.30;;
65545;SDS011;52177;55.968;37.498;2022-07-23T02:08:35;6.18;;;5.45;;
65545;SDS011;52177;55.968;37.498;2022-07-23T02:09:05;9.80;;;5.65;;
65545;SDS011;52177;55.968;37.498;2022-07-23T02:09:36;9.88;;;5.40;;
65545;SDS011;52177;55.968;37.498;2022-07-23T02:10:06;8.50;;;5.40;;
65545;SDS011;52177;55.968;37.498;2022-07-23T02:10:37;6.72;;;5.78;;
65545;SDS011;52177;55.968;37.498;2022-07-23T02:11:09;8.10;;;5.47;;
65545;SDS011;52177;55.968;37.498;2022-07-23T02:11:40;6.35;;;5.22;;
65545;SDS011;52177;55.968;37.498;2022-07-23T02:12:12;6.68;;;5.15;;
65545;SDS011;52177;55.968;37.498;2022-07-23T02:12:43;6.18;;;5.45;;
65545;SDS011;52177;55.968;37.498;2022-07-23T02:13:15;6.30;;;5.32;;
65545;SDS011;52177;55.968;37.498;2022-07-23T02:13:45;9.93;;;5.47;;
65545;SDS011;52177;55.968;37.498;2022-07-23T02:14:16;11.25;;;5.35;;
65545;SDS011;52177;55.968;37.498;2022-07-23T02:14:46;10.10;;;5.57;;
65545;SDS011;52177;55.968;37.498;2022-07-23T02:15:18;6.22;;;5.35;;
65545;SDS011;52177;55.968;37.498;2022-07-23T02:15:49;7.97;;;5.25;;
65545;SDS011;52177;55.968;37.498;2022-07-23T02:16:19;8.00;;;5.05;;
65545;SDS011;52177;55.968;37.498;2022-07-23T02:16:51;6.45;;;5.18;;
65545;SDS011;52177;55.968;37.498;2022-07-23T02:17:21;8.35;;;4.85;;
65545;SDS011;52177;55.968;37.498;2022-07-23T02:17:53;6.60;;;5.20;;
65545;SDS011;52177;55.968;37.498;2022-07-23T02:18:23;7.28;;;5.20;;
65545;SDS011;52177;55.968;37.498;2022-07-23T02:18:54;7.43;;;5.20;;
65545;SDS011;52177;55.968;37.498;2022-07-23T02:19:25;8.38;;;5.20;;
65545;SDS011;52177;55.968;37.498;2022-07-23T02:19:55;6.95;;;5.15;;
65545;SDS011;52177;55.968;37.498;2022-07-23T02:20:26;8.35;;;4.97;;
65545;SDS011;52177;55.968;37.498;2022-07-23T02:20:56;6.55;;;4.68;;
65545;SDS011;52177;55.968;37.498;2022-07-23T02:21:27;7.55;;;5.00;;
65545;SDS011;52177;55.968;37.498;2022-07-23T02:21:57;8.88;;;5.00;;
65545;SDS011;52177;55.968;37.498;2022-07-23T02:22:27;8.07;;;5.25;;
65545;SDS011;52177;55.968;37.498;2022-07-23T02:22:59;6.75;;;5.35;;
65545;SDS011;52177;55.968;37.498;2022-07-23T02:23:30;6.25;;;5.20;;
65545;SDS011;52177;55.968;37.498;2022-07-23T02:24:00;7.80;;;5.18;;
65545;SDS011;52177;55.968;37.498;2022-07-23T02:24:31;10.77;;;5.00;;
65545;SDS011;52177;55.968;37.498;2022-07-23T02:25:01;8.00;;;5.32;;
65545;SDS011;52177;55.968;37.498;2022-07-23T02:25:33;6.55;;;5.43;;
65545;SDS011;52177;55.968;37.498;2022-07-23T02:26:04;6.63;;;4.90;;
65545;SDS011;52177;55.968;37.498;2022-07-23T02:26:34;8.35;;;5.30;;
65545;SDS011;52177;55.968;37.498;2022-07-23T02:27:05;11.50;;;5.55;;
65545;SDS011;52177;55.968;37.498;2022-07-23T02:27:36;6.30;;;5.43;;
65545;SDS011;52177;55.968;37.498;2022-07-23T02:28:07;6.90;;;5.07;;
65545;SDS011;52177;55.968;37.498;2022-07-23T02:28:39;6.90;;;5.20;;
65545;SDS011;52177;55.968;37.498;2022-07-23T02:29:09;9.25;;;5.28;;
65545;SDS011;52177;55.968;37.498;2022-07-23T02:29:40;7.35;;;5.13;;
65545;SDS011;52177;55.968;37.498;2022-07-23T02:30:10;8.50;;;5.20;;
65545;SDS011;52177;55.968;37.498;2022-07-23T02:30:41;7.00;;;5.25;;
65545;SDS011;52177;55.968;37.498;2022-07-23T02:31:12;6.85;;;5.22;;
65545;SDS011;52177;55.968;37.498;2022-07-23T02:31:42;5.40;;;4.75;;
65545;SDS011;52177;55.968;37.498;2022-07-23T02:32:13;5.53;;;4.90;;
65545;SDS011;52177;55.968;37.498;2022-07-23T02:32:43;10.68;;;5.55;;
65545;SDS011;52177;55.968;37.498;2022-07-23T02:33:13;10.20;;;5.18;;
65545;SDS011;52177;55.968;37.498;2022-07-23T02:33:44;8.18;;;5.13;;
65545;SDS011;52177;55.968;37.498;2022-07-23T02:34:14;6.30;;;4.78;;
65545;SDS011;52177;55.968;37.498;2022-07-23T02:34:45;8.80;;;5.00;;
65545;SDS011;52177;55.968;37.498;2022-07-23T02:35:15;7.22;;;5.13;;
65545;SDS011;52177;55.968;37.498;2022-07-23T02:35:46;7.93;;;4.72;;
65545;SDS011;52177;55.968;37.498;2022-07-23T02:36:16;6.32;;;4.93;;
65545;SDS011;52177;55.968;37.498;2022-07-23T02:36:46;10.35;;;5.72;;
65545;SDS011;52177;55.968;37.498;2022-07-23T02:37:17;8.35;;;5.43;;
65545;SDS011;52177;55.968;37.498;2022-07-23T02:37:48;7.65;;;5.32;;
65545;SDS011;52177;55.968;37.498;2022-07-23T02:38:19;6.93;;;4.95;;
65545;SDS011;52177;55.968;37.498;2022-07-23T02:38:49;7.45;;;5.55;;
65545;SDS011;52177;55.968;37.498;2022-07-23T02:39:20;9.23;;;5.60;;
65545;SDS011;52177;55.968;37.498;2022-07-23T02:39:50;11.93;;;5.60;;
65545;SDS011;52177;55.968;37.498;2022-07-23T02:40:20;5.72;;;5.13;;
65545;SDS011;52177;55.968;37.498;2022-07-23T02:40:51;11.38;;;5.55;;
65545;SDS011;52177;55.968;37.498;2022-07-23T02:41:21;5.93;;;4.90;;
65545;SDS011;52177;55.968;37.498;2022-07-23T02:41:52;8.52;;;5.35;;
65545;SDS011;52177;55.968;37.498;2022-07-23T02:42:22;7.95;;;4.93;;
65545;SDS011;52177;55.968;37.498;2022-07-23T02:42:53;7.07;;;5.32;;
65545;SDS011;52177;55.968;37.498;2022-07-23T02:43:24;5.97;;;5.38;;
65545;SDS011;52177;55.968;37.498;2022-07-23T02:43:54;8.52;;;5.05;;
65545;SDS011;52177;55.968;37.498;2022-07-23T02:44:25;6.85;;;5.28;;
65545;SDS011;52177;55.968;37.498;2022-07-23T02:44:55;9.23;;;5.57;;
65545;SDS011;52177;55.968;37.498;2022-07-23T02:45:25;10.95;;;5.45;;
65545;SDS011;52177;55.968;37.498;2022-07-23T02:45:56;9.07;;;5.57;;
65545;SDS011;52177;55.968;37.498;2022-07-23T02:46:26;6.97;;;5.22;;
65545;SDS011;52177;55.968;37.498;2022-07-23T02:46:57;6.07;;;5.45;;
65545;SDS011;52177;55.968;37.498;2022-07-23T02:47:27;5.97;;;5.30;;
65545;SDS011;52177;55.968;37.498;2022-07-23T02:47:58;7.38;;;5.18;;
65545;SDS011;52177;55.968;37.498;2022-07-23T02:48:29;6.18;;;5.55;;
65545;SDS011;52177;55.968;37.498;2022-07-23T02:48:59;9.20;;;5.68;;
65545;SDS011;52177;55.968;37.498;2022-07-23T02:49:29;6.82;;;5.25;;
65545;SDS011;52177;55.968;37.498;2022-07-23T02:50:00;8.52;;;5.70;;
65545;SDS011;52177;55.968;37.498;2022-07-23T02:50:30;6.05;;;5.43;;
65545;SDS011;52177;55.968;37.498;2022-07-23T02:51:01;7.43;;;5.55;;
65545;SDS011;52177;55.968;37.498;2022-07-23T02:51:31;8.95;;;5.20;;
65545;SDS011;52177;55.968;37.498;2022-07-23T02:52:02;9.65;;;5.82;;
65545;SDS011;52177;55.968;37.498;2022-07-23T02:52:32;10.00;;;5.70;;
65545;SDS011;52177;55.968;37.498;2022-07-23T02:53:03;10.98;;;5.35;;
65545;SDS011;52177;55.968;37.498;2022-07-23T02:53:33;7.00;;;6.10;;
65545;SDS011;52177;55.968;37.498;2022-07-23T02:54:04;6.90;;;5.63;;
65545;SDS011;52177;55.968;37.498;2022-07-23T02:54:34;6.60;;;5.80;;
65545;SDS011;52177;55.968;37.498;2022-07-23T02:55:05;9.52;;;6.00;;
65545;SDS011;52177;55.968;37.498;2022-07-23T02:55:36;7.82;;;5.68;;
65545;SDS011;52177;55.968;37.498;2022-07-23T02:56:06;9.25;;;5.70;;
65545;SDS011;52177;55.968;37.498;2022-07-23T02:56:38;8.00;;;5.82;;
65545;SDS011;52177;55.968;37.498;2022-07-23T02:57:08;8.57;;;5.90;;
65545;SDS011;52177;55.968;37.498;2022-07-23T02:57:39;8.45;;;5.50;;
65545;SDS011;52177;55.968;37.498;2022-07-23T02:58:09;8.50;;;5.53;;
65545;SDS011;52177;55.968;37.498;2022-07-23T02:58:40;9.95;;;5.65;;
65545;SDS011;52177;55.968;37.498;2022-07-23T02:59:10;6.30;;;5.50;;
65545;SDS011;52177;55.968;37.498;2022-07-23T02:59:41;7.90;;;5.53;;
65545;SDS011;52177;55.968;37.498;2022-07-23T03:00:12;9.93;;;5.50;;
65545;SDS011;52177;55.968;37.498;2022-07-23T03:00:43;7.40;;;5.90;;
65545;SDS011;52177;55.968;37.498;2022-07-23T03:01:13;8.55;;;6.28;;
65545;SDS011;52177;55.968;37.498;2022-07-23T03:01:44;8.88;;;6.15;;
65545;SDS011;52177;55.968;37.498;2022-07-23T03:02:15;11.88;;;6.25;;
65545;SDS011;52177;55.968;37.498;2022-07-23T03:02:46;7.35;;;6.50;;
65545;SDS011;52177;55.968;37.498;2022-07-23T03:03:16;8.05;;;6.47;;
65545;SDS011;52177;55.968;37.498;2022-07-23T03:03:47;10.57;;;6.95;;